sensor_id;sensor_type;location;lat;lon;timestamp;P1;durP1;ratioP1;P2;durP2;ratioP2
7450;SDS011;3767;42.688;23.360;2022-12-11T00:00:22;25.83;;;10.30;;
7450;SDS011;3767;42.688;23.360;2022-12-11T00:02:48;24.07;;;11.33;;
7450;SDS011;3767;42.688;23.360;2022-12-11T00:05:15;21.63;;;11.10;;
7450;SDS011;3767;42.688;23.360;2022-12-11T00:07:42;20.70;;;11.17;;
7450;SDS011;3767;42.688;23.360;2022-12-11T00:10:08;19.83;;;10.37;;
7450;SDS011;3767;42.688;23.360;2022-12-11T00:12:36;17.57;;;11.13;;
7450;SDS011;3767;42.688;23.360;2022-12-11T00:15:03;20.40;;;10.80;;
7450;SDS011;3767;42.688;23.360;2022-12-11T00:17:29;17.90;;;11.27;;
7450;SDS011;3767;42.688;23.360;2022-12-11T00:19:56;22.23;;;11.90;;
7450;SDS011;3767;42.688;23.360;2022-12-11T00:22:22;23.73;;;12.30;;
7450;SDS011;3767;42.688;23.360;2022-12-11T00:24:50;23.83;;;11.57;;
7450;SDS011;3767;42.688;23.360;2022-12-11T00:27:16;20.03;;;11.20;;
7450;SDS011;3767;42.688;23.360;2022-12-11T00:29:44;22.60;;;11.80;;
7450;SDS011;3767;42.688;23.360;2022-12-11T00:32:11;21.77;;;11.83;;
7450;SDS011;3767;42.688;23.360;2022-12-11T00:34:37;23.13;;;11.70;;
7450;SDS011;3767;42.688;23.360;2022-12-11T00:37:04;22.07;;;11.57;;
7450;SDS011;3767;42.688;23.360;2022-12-11T00:39:30;24.03;;;13.27;;
7450;SDS011;3767;42.688;23.360;2022-12-11T00:41:57;27.13;;;12.90;;
7450;SDS011;3767;42.688;23.360;2022-12-11T00:44:23;25.53;;;12.60;;
7450;SDS011;3767;42.688;23.360;2022-12-11T00:46:51;17.30;;;9.90;;
7450;SDS011;3767;42.688;23.360;2022-12-11T00:49:17;32.93;;;12.13;;
7450;SDS011;3767;42.688;23.360;2022-12-11T00:51:44;21.83;;;11.23;;
7450;SDS011;3767;42.688;23.360;2022-12-11T00:54:10;25.87;;;12.93;;
7450;SDS011;3767;42.688;23.360;2022-12-11T00:56:37;21.20;;;10.70;;
7450;SDS011;3767;42.688;23.360;2022-12-11T00:59:03;17.40;;;10.00;;
7450;SDS011;3767;42.688;23.360;2022-12-11T01:01:30;19.83;;;10.57;;
7450;SDS011;3767;42.688;23.360;2022-12-11T01:03:58;18.03;;;9.57;;
7450;SDS011;3767;42.688;23.360;2022-12-11T01:06:25;16.03;;;9.90;;
7450;SDS011;3767;42.688;23.360;2022-12-11T01:08:53;22.03;;;10.73;;
7450;SDS011;3767;42.688;23.360;2022-12-11T01:11:33;15.73;;;9.87;;
7450;SDS011;3767;42.688;23.360;2022-12-11T01:14:00;15.47;;;8.90;;
7450;SDS011;3767;42.688;23.360;2022-12-11T01:16:26;19.63;;;10.63;;
7450;SDS011;3767;42.688;23.360;2022-12-11T01:18:53;18.93;;;10.90;;
7450;SDS011;3767;42.688;23.360;2022-12-11T01:21:21;19.60;;;10.97;;
7450;SDS011;3767;42.688;23.360;2022-12-11T01:23:48;19.07;;;10.13;;
7450;SDS011;3767;42.688;23.360;2022-12-11T01:26:15;21.23;;;10.77;;
7450;SDS011;3767;42.688;23.360;2022-12-11T01:28:42;20.20;;;10.83;;
7450;SDS011;3767;42.688;23.360;2022-12-11T01:31:09;26.73;;;11.73;;
7450;SDS011;3767;42.688;23.360;2022-12-11T01:33:36;21.37;;;10.37;;
7450;SDS011;3767;42.688;23.360;2022-12-11T01:36:05;18.87;;;10.17;;
7450;SDS011;3767;42.688;23.360;2022-12-11T01:38:33;14.87;;;9.07;;
7450;SDS011;3767;42.688;23.360;2022-12-11T01:40:59;14.53;;;7.97;;
7450;SDS011;3767;42.688;23.360;2022-12-11T01:43:26;17.10;;;10.03;;
7450;SDS011;3767;42.688;23.360;2022-12-11T01:45:52;16.60;;;9.07;;
7450;SDS011;3767;42.688;23.360;2022-12-11T01:48:19;15.20;;;8.73;;
7450;SDS011;3767;42.688;23.360;2022-12-11T01:50:47;16.97;;;9.07;;
7450;SDS011;3767;42.688;23.360;2022-12-11T01:53:16;13.10;;;8.13;;
7450;SDS011;3767;42.688;23.360;2022-12-11T01:55:44;12.53;;;7.43;;
7450;SDS011;3767;42.688;23.360;2022-12-11T01:58:11;14.90;;;7.40;;
7450;SDS011;3767;42.688;23.360;2022-12-11T02:00:38;10.60;;;6.27;;
7450;SDS011;3767;42.688;23.360;2022-12-11T02:03:05;7.17;;;4.57;;
7450;SDS011;3767;42.688;23.360;2022-12-11T02:05:31;9.23;;;5.53;;
7450;SDS011;3767;42.688;23.360;2022-12-11T02:07:58;9.53;;;5.27;;
7450;SDS011;3767;42.688;23.360;2022-12-11T02:10:28;13.63;;;5.80;;
7450;SDS011;3767;42.688;23.360;2022-12-11T02:12:59;10.03;;;5.90;;
7450;SDS011;3767;42.688;23.360;2022-12-11T02:15:30;7.03;;;5.13;;
7450;SDS011;3767;42.688;23.360;2022-12-11T02:18:01;6.50;;;4.53;;
7450;SDS011;3767;42.688;23.360;2022-12-11T02:20:29;3.27;;;2.97;;
7450;SDS011;3767;42.688;23.360;2022-12-11T02:25:46;3.63;;;1.90;;
7450;SDS011;3767;42.688;23.360;2022-12-11T02:28:18;2.30;;;2.00;;
7450;SDS011;3767;42.688;23.360;2022-12-11T02:30:48;3.77;;;1.47;;
7450;SDS011;3767;42.688;23.360;2022-12-11T02:33:15;2.23;;;1.37;;
7450;SDS011;3767;42.688;23.360;2022-12-11T02:35:44;1.60;;;1.50;;
7450;SDS011;3767;42.688;23.360;2022-12-11T02:38:13;1.40;;;1.20;;
7450;SDS011;3767;42.688;23.360;2022-12-11T02:40:40;1.83;;;1.70;;
7450;SDS011;3767;42.688;23.360;2022-12-11T02:43:09;1.70;;;1.60;;
7450;SDS011;3767;42.688;23.360;2022-12-11T02:45:38;6.33;;;1.63;;
7450;SDS011;3767;42.688;23.360;2022-12-11T02:48:05;2.93;;;1.50;;
7450;SDS011;3767;42.688;23.360;2022-12-11T02:50:34;1.67;;;1.57;;
7450;SDS011;3767;42.688;23.360;2022-12-11T02:53:01;1.73;;;1.47;;
7450;SDS011;3767;42.688;23.360;2022-12-11T02:55:28;1.17;;;1.10;;
7450;SDS011;3767;42.688;23.360;2022-12-11T02:57:59;1.47;;;1.37;;
7450;SDS011;3767;42.688;23.360;2022-12-11T03:00:27;2.60;;;1.60;;
7450;SDS011;3767;42.688;23.360;2022-12-11T03:02:55;4.43;;;1.77;;
7450;SDS011;3767;42.688;23.360;2022-12-11T03:05:21;1.87;;;1.43;;
7450;SDS011;3767;42.688;23.360;2022-12-11T03:07:48;2.00;;;1.33;;
7450;SDS011;3767;42.688;23.360;2022-12-11T03:10:16;1.60;;;1.50;;
7450;SDS011;3767;42.688;23.360;2022-12-11T03:12:44;1.60;;;1.50;;
7450;SDS011;3767;42.688;23.360;2022-12-11T03:15:13;1.30;;;1.20;;
7450;SDS011;3767;42.688;23.360;2022-12-11T03:17:43;0.70;;;0.70;;
7450;SDS011;3767;42.688;23.360;2022-12-11T03:20:16;0.80;;;0.80;;
7450;SDS011;3767;42.688;23.360;2022-12-11T03:22:46;0.70;;;0.70;;
7450;SDS011;3767;42.688;23.360;2022-12-11T03:25:17;0.70;;;0.70;;
7450;SDS011;3767;42.688;23.360;2022-12-11T03:27:46;0.60;;;0.60;;
7450;SDS011;3767;42.688;23.360;2022-12-11T03:30:15;0.60;;;0.60;;
7450;SDS011;3767;42.688;23.360;2022-12-11T03:32:43;0.70;;;0.70;;
7450;SDS011;3767;42.688;23.360;2022-12-11T03:35:12;0.80;;;0.80;;
7450;SDS011;3767;42.688;23.360;2022-12-11T03:37:40;0.60;;;0.60;;
7450;SDS011;3767;42.688;23.360;2022-12-11T03:40:09;2.03;;;0.93;;
7450;SDS011;3767;42.688;23.360;2022-12-11T03:42:36;0.60;;;0.60;;
7450;SDS011;3767;42.688;23.360;2022-12-11T03:45:04;1.70;;;0.80;;
7450;SDS011;3767;42.688;23.360;2022-12-11T03:47:32;0.70;;;0.70;;
7450;SDS011;3767;42.688;23.360;2022-12-11T03:49:59;0.90;;;0.70;;
7450;SDS011;3767;42.688;23.360;2022-12-11T03:52:27;0.70;;;0.70;;
7450;SDS011;3767;42.688;23.360;2022-12-11T03:54:56;1.10;;;1.00;;
7450;SDS011;3767;42.688;23.360;2022-12-11T03:57:24;0.77;;;0.77;;
7450;SDS011;3767;42.688;23.360;2022-12-11T03:59:52;1.03;;;0.87;;
7450;SDS011;3767;42.688;23.360;2022-12-11T04:02:19;1.03;;;1.00;;
7450;SDS011;3767;42.688;23.360;2022-12-11T04:04:45;1.23;;;0.60;;
7450;SDS011;3767;42.688;23.360;2022-12-11T04:07:12;2.07;;;0.70;;
7450;SDS011;3767;42.688;23.360;2022-12-11T04:09:38;1.77;;;1.20;;
7450;SDS011;3767;42.688;23.360;2022-12-11T04:12:06;2.40;;;2.20;;
7450;SDS011;3767;42.688;23.360;2022-12-11T04:14:33;1.00;;;1.00;;
7450;SDS011;3767;42.688;23.360;2022-12-11T04:17:17;1.57;;;1.27;;
7450;SDS011;3767;42.688;23.360;2022-12-11T04:19:57;1.17;;;1.03;;
7450;SDS011;3767;42.688;23.360;2022-12-11T04:22:41;2.97;;;1.50;;
7450;SDS011;3767;42.688;23.360;2022-12-11T04:25:25;2.63;;;1.10;;
7450;SDS011;3767;42.688;23.360;2022-12-11T04:27:53;2.30;;;1.30;;
7450;SDS011;3767;42.688;23.360;2022-12-11T04:30:20;2.37;;;2.00;;
7450;SDS011;3767;42.688;23.360;2022-12-11T04:32:47;1.87;;;1.50;;
7450;SDS011;3767;42.688;23.360;2022-12-11T04:35:14;1.90;;;1.53;;
7450;SDS011;3767;42.688;23.360;2022-12-11T04:37:40;1.43;;;1.33;;
7450;SDS011;3767;42.688;23.360;2022-12-11T04:40:08;1.73;;;0.97;;
7450;SDS011;3767;42.688;23.360;2022-12-11T04:42:35;0.93;;;0.77;;
7450;SDS011;3767;42.688;23.360;2022-12-11T04:45:03;1.17;;;1.17;;
7450;SDS011;3767;42.688;23.360;2022-12-11T04:47:30;1.47;;;0.90;;
7450;SDS011;3767;42.688;23.360;2022-12-11T04:49:56;0.93;;;0.70;;
7450;SDS011;3767;42.688;23.360;2022-12-11T04:52:23;0.90;;;0.60;;
7450;SDS011;3767;42.688;23.360;2022-12-11T04:54:49;0.70;;;0.70;;
7450;SDS011;3767;42.688;23.360;2022-12-11T04:57:16;0.90;;;0.80;;
7450;SDS011;3767;42.688;23.360;2022-12-11T04:59:44;4.43;;;0.73;;
7450;SDS011;3767;42.688;23.360;2022-12-11T05:02:12;1.90;;;0.60;;
7450;SDS011;3767;42.688;23.360;2022-12-11T05:04:39;2.20;;;0.70;;
7450;SDS011;3767;42.688;23.360;2022-12-11T05:07:06;2.00;;;0.70;;
7450;SDS011;3767;42.688;23.360;2022-12-11T05:09:33;3.23;;;0.50;;
7450;SDS011;3767;42.688;23.360;2022-12-11T05:11:59;1.40;;;0.60;;
7450;SDS011;3767;42.688;23.360;2022-12-11T05:14:26;1.40;;;0.80;;
7450;SDS011;3767;42.688;23.360;2022-12-11T05:16:56;0.77;;;0.67;;
7450;SDS011;3767;42.688;23.360;2022-12-11T05:19:24;0.70;;;0.70;;
7450;SDS011;3767;42.688;23.360;2022-12-11T05:21:51;3.40;;;0.73;;
7450;SDS011;3767;42.688;23.360;2022-12-11T05:24:17;2.27;;;0.77;;
7450;SDS011;3767;42.688;23.360;2022-12-11T05:26:44;1.23;;;0.87;;
7450;SDS011;3767;42.688;23.360;2022-12-11T05:29:10;0.80;;;0.70;;
7450;SDS011;3767;42.688;23.360;2022-12-11T05:31:37;3.23;;;0.90;;
7450;SDS011;3767;42.688;23.360;2022-12-11T05:34:03;1.67;;;0.80;;
7450;SDS011;3767;42.688;23.360;2022-12-11T05:36:32;1.13;;;1.03;;
7450;SDS011;3767;42.688;23.360;2022-12-11T05:38:58;0.90;;;0.80;;
7450;SDS011;3767;42.688;23.360;2022-12-11T05:41:26;0.77;;;0.70;;
7450;SDS011;3767;42.688;23.360;2022-12-11T05:43:52;0.90;;;0.70;;
7450;SDS011;3767;42.688;23.360;2022-12-11T05:46:20;1.13;;;0.60;;
7450;SDS011;3767;42.688;23.360;2022-12-11T05:48:47;3.10;;;1.00;;
7450;SDS011;3767;42.688;23.360;2022-12-11T05:51:14;1.33;;;0.70;;
7450;SDS011;3767;42.688;23.360;2022-12-11T05:53:42;0.70;;;0.70;;
7450;SDS011;3767;42.688;23.360;2022-12-11T05:56:10;0.80;;;0.80;;
7450;SDS011;3767;42.688;23.360;2022-12-11T05:58:37;2.13;;;0.80;;
7450;SDS011;3767;42.688;23.360;2022-12-11T06:01:05;2.33;;;1.10;;
7450;SDS011;3767;42.688;23.360;2022-12-11T06:03:32;1.43;;;0.80;;
7450;SDS011;3767;42.688;23.360;2022-12-11T06:06:00;2.93;;;0.77;;
7450;SDS011;3767;42.688;23.360;2022-12-11T06:08:27;4.00;;;0.80;;
7450;SDS011;3767;42.688;23.360;2022-12-11T06:10:55;1.60;;;1.20;;
7450;SDS011;3767;42.688;23.360;2022-12-11T06:13:21;0.90;;;0.90;;
7450;SDS011;3767;42.688;23.360;2022-12-11T06:15:48;4.03;;;1.10;;
7450;SDS011;3767;42.688;23.360;2022-12-11T06:18:15;0.80;;;0.80;;
7450;SDS011;3767;42.688;23.360;2022-12-11T06:20:41;0.80;;;0.50;;
7450;SDS011;3767;42.688;23.360;2022-12-11T06:23:08;1.60;;;0.57;;
7450;SDS011;3767;42.688;23.360;2022-12-11T06:25:36;0.80;;;0.70;;
7450;SDS011;3767;42.688;23.360;2022-12-11T06:28:05;0.90;;;0.70;;
7450;SDS011;3767;42.688;23.360;2022-12-11T06:30:32;1.20;;;1.10;;
7450;SDS011;3767;42.688;23.360;2022-12-11T06:32:58;1.53;;;1.20;;
7450;SDS011;3767;42.688;23.360;2022-12-11T06:35:25;1.07;;;0.83;;
7450;SDS011;3767;42.688;23.360;2022-12-11T06:37:51;1.07;;;0.90;;
7450;SDS011;3767;42.688;23.360;2022-12-11T06:40:18;0.90;;;0.90;;
7450;SDS011;3767;42.688;23.360;2022-12-11T06:42:44;1.33;;;1.00;;
7450;SDS011;3767;42.688;23.360;2022-12-11T06:45:12;1.60;;;1.23;;
7450;SDS011;3767;42.688;23.360;2022-12-11T06:47:39;1.37;;;1.00;;
7450;SDS011;3767;42.688;23.360;2022-12-11T06:50:05;1.43;;;0.93;;
7450;SDS011;3767;42.688;23.360;2022-12-11T06:52:32;1.07;;;0.73;;
7450;SDS011;3767;42.688;23.360;2022-12-11T06:54:58;2.43;;;0.50;;
7450;SDS011;3767;42.688;23.360;2022-12-11T06:57:25;1.30;;;1.20;;
7450;SDS011;3767;42.688;23.360;2022-12-11T06:59:51;0.70;;;0.70;;
7450;SDS011;3767;42.688;23.360;2022-12-11T07:02:19;0.80;;;0.50;;
7450;SDS011;3767;42.688;23.360;2022-12-11T07:04:46;2.13;;;0.60;;
7450;SDS011;3767;42.688;23.360;2022-12-11T07:07:12;0.53;;;0.30;;
7450;SDS011;3767;42.688;23.360;2022-12-11T07:09:39;1.67;;;0.70;;
7450;SDS011;3767;42.688;23.360;2022-12-11T07:12:06;0.70;;;0.70;;
7450;SDS011;3767;42.688;23.360;2022-12-11T07:14:33;1.47;;;0.60;;
7450;SDS011;3767;42.688;23.360;2022-12-11T07:17:00;0.80;;;0.70;;
7450;SDS011;3767;42.688;23.360;2022-12-11T07:19:27;1.00;;;0.90;;
7450;SDS011;3767;42.688;23.360;2022-12-11T07:21:54;0.93;;;0.60;;
7450;SDS011;3767;42.688;23.360;2022-12-11T07:24:21;1.03;;;0.80;;
7450;SDS011;3767;42.688;23.360;2022-12-11T07:26:48;0.80;;;0.80;;
7450;SDS011;3767;42.688;23.360;2022-12-11T07:29:14;0.70;;;0.70;;
7450;SDS011;3767;42.688;23.360;2022-12-11T07:31:40;2.23;;;0.80;;
7450;SDS011;3767;42.688;23.360;2022-12-11T07:34:10;2.40;;;1.60;;
7450;SDS011;3767;42.688;23.360;2022-12-11T07:36:38;1.20;;;1.10;;
7450;SDS011;3767;42.688;23.360;2022-12-11T07:39:04;0.70;;;0.70;;
7450;SDS011;3767;42.688;23.360;2022-12-11T07:41:31;1.40;;;0.70;;
7450;SDS011;3767;42.688;23.360;2022-12-11T07:43:59;1.57;;;0.90;;
7450;SDS011;3767;42.688;23.360;2022-12-11T07:46:27;2.60;;;0.83;;
7450;SDS011;3767;42.688;23.360;2022-12-11T07:48:54;2.20;;;0.90;;
7450;SDS011;3767;42.688;23.360;2022-12-11T07:51:21;2.70;;;0.80;;
7450;SDS011;3767;42.688;23.360;2022-12-11T07:53:52;1.37;;;0.80;;
7450;SDS011;3767;42.688;23.360;2022-12-11T07:56:19;0.87;;;0.87;;
7450;SDS011;3767;42.688;23.360;2022-12-11T07:58:45;2.00;;;0.93;;
7450;SDS011;3767;42.688;23.360;2022-12-11T08:01:12;0.83;;;0.83;;
7450;SDS011;3767;42.688;23.360;2022-12-11T08:03:40;1.40;;;0.70;;
7450;SDS011;3767;42.688;23.360;2022-12-11T08:06:06;1.07;;;0.83;;
7450;SDS011;3767;42.688;23.360;2022-12-11T08:08:33;0.70;;;0.70;;
7450;SDS011;3767;42.688;23.360;2022-12-11T08:11:01;1.13;;;0.70;;
7450;SDS011;3767;42.688;23.360;2022-12-11T08:13:28;1.30;;;0.80;;
7450;SDS011;3767;42.688;23.360;2022-12-11T08:15:54;1.17;;;0.80;;
7450;SDS011;3767;42.688;23.360;2022-12-11T08:18:20;0.83;;;0.70;;
7450;SDS011;3767;42.688;23.360;2022-12-11T08:20:47;0.93;;;0.80;;
7450;SDS011;3767;42.688;23.360;2022-12-11T08:23:13;1.30;;;1.20;;
7450;SDS011;3767;42.688;23.360;2022-12-11T08:25:40;1.10;;;1.00;;
7450;SDS011;3767;42.688;23.360;2022-12-11T08:28:08;1.10;;;1.00;;
7450;SDS011;3767;42.688;23.360;2022-12-11T08:30:34;1.53;;;1.10;;
7450;SDS011;3767;42.688;23.360;2022-12-11T08:33:04;2.93;;;1.93;;
7450;SDS011;3767;42.688;23.360;2022-12-11T08:35:30;1.43;;;1.30;;
7450;SDS011;3767;42.688;23.360;2022-12-11T08:37:57;1.90;;;1.50;;
7450;SDS011;3767;42.688;23.360;2022-12-11T08:40:24;1.23;;;1.07;;
7450;SDS011;3767;42.688;23.360;2022-12-11T08:42:54;0.93;;;0.70;;
7450;SDS011;3767;42.688;23.360;2022-12-11T08:45:24;3.03;;;0.80;;
7450;SDS011;3767;42.688;23.360;2022-12-11T08:47:51;1.27;;;1.17;;
7450;SDS011;3767;42.688;23.360;2022-12-11T08:50:18;0.93;;;0.90;;
7450;SDS011;3767;42.688;23.360;2022-12-11T08:52:44;2.13;;;1.20;;
7450;SDS011;3767;42.688;23.360;2022-12-11T08:55:10;0.80;;;0.80;;
7450;SDS011;3767;42.688;23.360;2022-12-11T08:57:37;0.60;;;0.60;;
7450;SDS011;3767;42.688;23.360;2022-12-11T09:00:05;0.70;;;0.70;;
7450;SDS011;3767;42.688;23.360;2022-12-11T09:02:34;1.07;;;1.00;;
7450;SDS011;3767;42.688;23.360;2022-12-11T09:05:00;0.93;;;0.93;;
7450;SDS011;3767;42.688;23.360;2022-12-11T09:07:27;1.43;;;0.90;;
7450;SDS011;3767;42.688;23.360;2022-12-11T09:09:53;1.13;;;1.03;;
7450;SDS011;3767;42.688;23.360;2022-12-11T09:12:20;0.90;;;0.90;;
7450;SDS011;3767;42.688;23.360;2022-12-11T09:14:47;1.13;;;1.10;;
7450;SDS011;3767;42.688;23.360;2022-12-11T09:17:13;2.10;;;1.20;;
7450;SDS011;3767;42.688;23.360;2022-12-11T09:19:41;1.90;;;1.10;;
7450;SDS011;3767;42.688;23.360;2022-12-11T09:22:08;0.93;;;0.93;;
7450;SDS011;3767;42.688;23.360;2022-12-11T09:24:35;1.13;;;1.03;;
7450;SDS011;3767;42.688;23.360;2022-12-11T09:27:02;1.70;;;1.10;;
7450;SDS011;3767;42.688;23.360;2022-12-11T09:29:28;1.27;;;0.93;;
7450;SDS011;3767;42.688;23.360;2022-12-11T09:31:55;1.90;;;1.40;;
7450;SDS011;3767;42.688;23.360;2022-12-11T09:34:21;1.67;;;1.37;;
7450;SDS011;3767;42.688;23.360;2022-12-11T09:36:49;2.63;;;2.30;;
7450;SDS011;3767;42.688;23.360;2022-12-11T09:39:16;2.33;;;1.73;;
7450;SDS011;3767;42.688;23.360;2022-12-11T09:41:47;2.00;;;1.00;;
7450;SDS011;3767;42.688;23.360;2022-12-11T09:44:19;3.70;;;1.30;;
7450;SDS011;3767;42.688;23.360;2022-12-11T09:46:46;1.47;;;0.90;;
7450;SDS011;3767;42.688;23.360;2022-12-11T09:49:18;1.73;;;1.20;;
7450;SDS011;3767;42.688;23.360;2022-12-11T09:51:48;1.20;;;1.10;;
7450;SDS011;3767;42.688;23.360;2022-12-11T09:54:17;1.23;;;1.00;;
7450;SDS011;3767;42.688;23.360;2022-12-11T09:56:44;1.10;;;1.03;;
7450;SDS011;3767;42.688;23.360;2022-12-11T09:59:17;1.20;;;1.10;;
7450;SDS011;3767;42.688;23.360;2022-12-11T10:01:48;1.30;;;1.20;;
7450;SDS011;3767;42.688;23.360;2022-12-11T10:04:29;2.07;;;1.10;;
7450;SDS011;3767;42.688;23.360;2022-12-11T10:07:02;2.23;;;0.97;;
7450;SDS011;3767;42.688;23.360;2022-12-11T10:09:33;1.37;;;0.90;;
7450;SDS011;3767;42.688;23.360;2022-12-11T10:12:06;0.90;;;0.90;;
7450;SDS011;3767;42.688;23.360;2022-12-11T10:14:38;2.90;;;1.10;;
7450;SDS011;3767;42.688;23.360;2022-12-11T10:17:11;1.37;;;1.27;;
7450;SDS011;3767;42.688;23.360;2022-12-11T10:19:38;1.93;;;1.00;;
7450;SDS011;3767;42.688;23.360;2022-12-11T10:22:07;3.40;;;1.63;;
7450;SDS011;3767;42.688;23.360;2022-12-11T10:24:39;3.17;;;1.50;;
7450;SDS011;3767;42.688;23.360;2022-12-11T10:27:14;4.03;;;1.30;;
7450;SDS011;3767;42.688;23.360;2022-12-11T10:29:43;3.40;;;2.10;;
7450;SDS011;3767;42.688;23.360;2022-12-11T10:32:12;4.33;;;1.80;;
7450;SDS011;3767;42.688;23.360;2022-12-11T10:34:40;2.93;;;1.80;;
7450;SDS011;3767;42.688;23.360;2022-12-11T10:37:08;3.83;;;2.30;;
7450;SDS011;3767;42.688;23.360;2022-12-11T10:39:34;1.87;;;1.43;;
7450;SDS011;3767;42.688;23.360;2022-12-11T10:42:05;2.80;;;1.23;;
7450;SDS011;3767;42.688;23.360;2022-12-11T10:44:38;2.67;;;1.87;;
7450;SDS011;3767;42.688;23.360;2022-12-11T10:47:08;1.43;;;1.30;;
7450;SDS011;3767;42.688;23.360;2022-12-11T10:49:36;3.23;;;1.90;;
7450;SDS011;3767;42.688;23.360;2022-12-11T10:52:08;3.00;;;1.40;;
7450;SDS011;3767;42.688;23.360;2022-12-11T10:54:35;0.80;;;0.80;;
7450;SDS011;3767;42.688;23.360;2022-12-11T10:57:05;2.30;;;1.77;;
7450;SDS011;3767;42.688;23.360;2022-12-11T10:59:34;0.90;;;0.90;;
7450;SDS011;3767;42.688;23.360;2022-12-11T11:02:02;1.30;;;1.20;;
7450;SDS011;3767;42.688;23.360;2022-12-11T11:04:30;1.37;;;1.00;;
7450;SDS011;3767;42.688;23.360;2022-12-11T11:07:00;2.43;;;0.90;;
7450;SDS011;3767;42.688;23.360;2022-12-11T11:09:28;0.60;;;0.60;;
7450;SDS011;3767;42.688;23.360;2022-12-11T11:11:54;1.30;;;1.07;;
7450;SDS011;3767;42.688;23.360;2022-12-11T11:14:22;0.67;;;0.67;;
7450;SDS011;3767;42.688;23.360;2022-12-11T11:16:49;1.03;;;1.03;;
7450;SDS011;3767;42.688;23.360;2022-12-11T11:19:18;1.87;;;1.10;;
7450;SDS011;3767;42.688;23.360;2022-12-11T11:21:49;1.30;;;1.20;;
7450;SDS011;3767;42.688;23.360;2022-12-11T11:27:00;1.40;;;1.30;;
7450;SDS011;3767;42.688;23.360;2022-12-11T11:29:29;8.47;;;6.80;;
7450;SDS011;3767;42.688;23.360;2022-12-11T11:31:58;29.87;;;17.43;;
7450;SDS011;3767;42.688;23.360;2022-12-11T11:34:27;2.90;;;2.00;;
7450;SDS011;3767;42.688;23.360;2022-12-11T11:36:55;1.33;;;1.27;;
7450;SDS011;3767;42.688;23.360;2022-12-11T11:39:25;1.60;;;1.50;;
7450;SDS011;3767;42.688;23.360;2022-12-11T11:41:54;3.20;;;3.00;;
7450;SDS011;3767;42.688;23.360;2022-12-11T11:44:24;4.63;;;3.83;;
7450;SDS011;3767;42.688;23.360;2022-12-11T11:46:56;5.87;;;4.00;;
7450;SDS011;3767;42.688;23.360;2022-12-11T11:49:27;5.77;;;4.80;;
7450;SDS011;3767;42.688;23.360;2022-12-11T11:51:59;8.50;;;5.03;;
7450;SDS011;3767;42.688;23.360;2022-12-11T11:54:29;4.87;;;4.37;;
7450;SDS011;3767;42.688;23.360;2022-12-11T11:56:56;7.10;;;4.60;;
7450;SDS011;3767;42.688;23.360;2022-12-11T11:59:24;5.63;;;4.10;;
7450;SDS011;3767;42.688;23.360;2022-12-11T12:01:54;8.63;;;4.93;;
7450;SDS011;3767;42.688;23.360;2022-12-11T12:04:22;6.77;;;3.80;;
7450;SDS011;3767;42.688;23.360;2022-12-11T12:07:03;11.03;;;5.33;;
7450;SDS011;3767;42.688;23.360;2022-12-11T12:09:37;7.20;;;4.40;;
7450;SDS011;3767;42.688;23.360;2022-12-11T12:12:10;11.17;;;6.60;;
7450;SDS011;3767;42.688;23.360;2022-12-11T12:14:42;9.37;;;5.43;;
7450;SDS011;3767;42.688;23.360;2022-12-11T12:17:14;6.30;;;4.40;;
7450;SDS011;3767;42.688;23.360;2022-12-11T12:19:45;5.60;;;4.30;;
7450;SDS011;3767;42.688;23.360;2022-12-11T12:22:16;7.43;;;5.23;;
7450;SDS011;3767;42.688;23.360;2022-12-11T12:24:48;3.40;;;2.93;;
7450;SDS011;3767;42.688;23.360;2022-12-11T12:27:17;2.33;;;2.03;;
7450;SDS011;3767;42.688;23.360;2022-12-11T12:29:46;2.27;;;2.00;;
7450;SDS011;3767;42.688;23.360;2022-12-11T12:32:19;6.10;;;1.90;;
7450;SDS011;3767;42.688;23.360;2022-12-11T12:35:00;2.23;;;1.93;;
7450;SDS011;3767;42.688;23.360;2022-12-11T12:37:33;1.80;;;1.70;;
7450;SDS011;3767;42.688;23.360;2022-12-11T12:40:07;1.73;;;1.63;;
7450;SDS011;3767;42.688;23.360;2022-12-11T12:42:35;2.20;;;2.00;;
7450;SDS011;3767;42.688;23.360;2022-12-11T12:45:06;3.43;;;2.10;;
7450;SDS011;3767;42.688;23.360;2022-12-11T12:47:33;3.03;;;1.73;;
7450;SDS011;3767;42.688;23.360;2022-12-11T12:50:02;2.37;;;1.70;;
7450;SDS011;3767;42.688;23.360;2022-12-11T12:52:30;2.53;;;2.33;;
7450;SDS011;3767;42.688;23.360;2022-12-11T12:54:57;2.20;;;2.00;;
7450;SDS011;3767;42.688;23.360;2022-12-11T12:57:44;2.30;;;2.10;;
7450;SDS011;3767;42.688;23.360;2022-12-11T13:00:12;2.07;;;1.97;;
7450;SDS011;3767;42.688;23.360;2022-12-11T13:02:46;2.00;;;1.80;;
7450;SDS011;3767;42.688;23.360;2022-12-11T13:05:19;3.40;;;1.90;;
7450;SDS011;3767;42.688;23.360;2022-12-11T13:07:47;2.10;;;2.00;;
7450;SDS011;3767;42.688;23.360;2022-12-11T13:10:21;2.00;;;1.90;;
7450;SDS011;3767;42.688;23.360;2022-12-11T13:12:48;2.07;;;1.93;;
7450;SDS011;3767;42.688;23.360;2022-12-11T13:15:25;2.30;;;1.90;;
7450;SDS011;3767;42.688;23.360;2022-12-11T13:17:52;3.60;;;1.97;;
7450;SDS011;3767;42.688;23.360;2022-12-11T13:20:21;1.60;;;1.50;;
7450;SDS011;3767;42.688;23.360;2022-12-11T13:22:50;2.07;;;1.87;;
7450;SDS011;3767;42.688;23.360;2022-12-11T13:25:25;1.63;;;1.53;;
7450;SDS011;3767;42.688;23.360;2022-12-11T13:27:52;108.57;;;46.63;;
7450;SDS011;3767;42.688;23.360;2022-12-11T13:30:22;2.87;;;2.40;;
7450;SDS011;3767;42.688;23.360;2022-12-11T13:32:52;2.13;;;1.93;;
7450;SDS011;3767;42.688;23.360;2022-12-11T13:35:21;2.50;;;2.30;;
7450;SDS011;3767;42.688;23.360;2022-12-11T13:37:48;3.30;;;2.30;;
7450;SDS011;3767;42.688;23.360;2022-12-11T13:40:18;2.67;;;2.03;;
7450;SDS011;3767;42.688;23.360;2022-12-11T13:42:47;2.13;;;2.03;;
7450;SDS011;3767;42.688;23.360;2022-12-11T13:45:17;1.80;;;1.70;;
7450;SDS011;3767;42.688;23.360;2022-12-11T13:47:44;1.80;;;1.70;;
7450;SDS011;3767;42.688;23.360;2022-12-11T13:50:13;2.03;;;1.83;;
7450;SDS011;3767;42.688;23.360;2022-12-11T13:52:51;2.20;;;2.00;;
7450;SDS011;3767;42.688;23.360;2022-12-11T13:55:20;4.20;;;1.97;;
7450;SDS011;3767;42.688;23.360;2022-12-11T13:57:48;1.73;;;1.63;;
7450;SDS011;3767;42.688;23.360;2022-12-11T14:00:18;1.87;;;1.77;;
7450;SDS011;3767;42.688;23.360;2022-12-11T14:02:45;3.67;;;1.67;;
7450;SDS011;3767;42.688;23.360;2022-12-11T14:05:12;1.47;;;1.37;;
7450;SDS011;3767;42.688;23.360;2022-12-11T14:07:40;1.43;;;1.20;;
7450;SDS011;3767;42.688;23.360;2022-12-11T14:10:13;1.63;;;1.53;;
7450;SDS011;3767;42.688;23.360;2022-12-11T14:12:41;1.10;;;1.10;;
7450;SDS011;3767;42.688;23.360;2022-12-11T14:15:10;1.13;;;1.10;;
7450;SDS011;3767;42.688;23.360;2022-12-11T14:17:38;1.50;;;1.40;;
7450;SDS011;3767;42.688;23.360;2022-12-11T14:20:10;2.70;;;1.70;;
7450;SDS011;3767;42.688;23.360;2022-12-11T14:22:41;1.60;;;1.50;;
7450;SDS011;3767;42.688;23.360;2022-12-11T14:25:17;1.50;;;1.40;;
7450;SDS011;3767;42.688;23.360;2022-12-11T14:27:46;1.67;;;1.57;;
7450;SDS011;3767;42.688;23.360;2022-12-11T14:30:19;1.80;;;1.70;;
7450;SDS011;3767;42.688;23.360;2022-12-11T14:32:46;3.70;;;1.57;;
7450;SDS011;3767;42.688;23.360;2022-12-11T14:35:17;3.07;;;1.97;;
7450;SDS011;3767;42.688;23.360;2022-12-11T14:37:43;2.77;;;2.37;;
7450;SDS011;3767;42.688;23.360;2022-12-11T14:40:13;6.07;;;2.40;;
7450;SDS011;3767;42.688;23.360;2022-12-11T14:42:42;3.07;;;1.97;;
7450;SDS011;3767;42.688;23.360;2022-12-11T14:45:14;1.40;;;1.30;;
7450;SDS011;3767;42.688;23.360;2022-12-11T14:47:43;1.73;;;1.63;;
7450;SDS011;3767;42.688;23.360;2022-12-11T14:50:12;2.67;;;1.90;;
7450;SDS011;3767;42.688;23.360;2022-12-11T14:52:42;1.73;;;1.57;;
7450;SDS011;3767;42.688;23.360;2022-12-11T14:55:12;2.70;;;1.63;;
7450;SDS011;3767;42.688;23.360;2022-12-11T14:57:40;3.03;;;1.70;;
7450;SDS011;3767;42.688;23.360;2022-12-11T15:00:20;2.90;;;1.30;;
7450;SDS011;3767;42.688;23.360;2022-12-11T15:02:55;2.33;;;1.30;;
7450;SDS011;3767;42.688;23.360;2022-12-11T15:05:22;2.70;;;1.63;;
7450;SDS011;3767;42.688;23.360;2022-12-11T15:07:52;3.83;;;1.30;;
7450;SDS011;3767;42.688;23.360;2022-12-11T15:10:27;1.70;;;1.40;;